^^
Station Historical Data
Daily Summary for April 18, 2018 Units:  English    Metric   Both
« Previous Day
Next Day »
Daily Weekly Monthly Yearly Custom
  High: Low: Average:
Temperature: TemperatureF °F 34.4 °F 41.5 °F
Dew Point: DewpointF °F 23.3 °F 28.7 °F
Humidity: Humidity% 46% 60%
Wind Speed: WindSpeedMPHmph 0.0mph 2.4mph
Wind Gust: WindSpeedGustMPHmph - -
Wind- - SW
Pressure: PressureIn in 29.75 in -
Precipitation: 0.00 in    
Historical Graphs
 
 
Tabular Data for April 18, 2018
Time Temperature Dew Point Pressure Wind Wind Speed Wind Gust Humidity Rainfall Rate (Hourly) Conditions
TemperatureF °F DewpointF °F PressureIn in Calm     Humidity% HourlyPrecipIn in Conditions
00:04 36.0 °F 27.2 °F 29.75 in WSW 2.0 mph 9.0 mph 70% 0.00 in BKN
00:19 35.9 °F 26.7 °F 29.75 in SSE 1.0 mph 4.0 mph 69% 0.00 in BKN
00:34 35.5 °F 26.4 °F 29.75 in Calm   5.0 mph 69% 0.00 in BKN
00:49 35.3 °F 26.5 °F 29.76 in WSW 2.0 mph 10.0 mph 70% 0.00 in BKN
01:04 34.9 °F 27.1 °F 29.76 in SW 1.0 mph 4.0 mph 73% 0.00 in FEW
01:19 34.6 °F 27.5 °F 29.76 in SW 1.0 mph 6.0 mph 75% 0.00 in FEW
01:34 34.6 °F 27.2 °F 29.76 in SW 2.0 mph 7.0 mph 74% 0.00 in FEW
01:49 34.9 °F 25.0 °F 29.76 in SW 3.0 mph 10.0 mph 67% 0.00 in FEW
02:04 34.6 °F 24.8 °F 29.76 in South 2.0 mph 6.0 mph 67% 0.00 in CLR
02:19 34.4 °F 24.2 °F 29.77 in SW 2.0 mph 7.0 mph 66% 0.00 in CLR
02:34 34.5 °F 24.7 °F 29.77 in WSW 2.0 mph 8.0 mph 67% 0.00 in CLR
02:49 34.5 °F 24.3 °F 29.77 in WSW 5.0 mph 9.0 mph 66% 0.00 in CLR
03:04 34.5 °F 23.9 °F 29.77 in WSW 3.0 mph 12.0 mph 65% 0.00 in FEW
03:19 34.8 °F 23.8 °F 29.77 in SW 3.0 mph 14.0 mph 64% 0.00 in FEW
03:34 34.9 °F 23.9 °F 29.77 in SSW 2.0 mph 9.0 mph 64% 0.00 in FEW
03:49 35.0 °F 23.3 °F 29.78 in SW 3.0 mph 12.0 mph 62% 0.00 in FEW
04:04 35.1 °F 23.8 °F 29.77 in SW 1.0 mph 12.0 mph 63% 0.00 in SCT
04:19 35.2 °F 23.5 °F 29.78 in SW 1.0 mph 6.0 mph 62% 0.00 in SCT
04:34 35.3 °F 23.6 °F 29.78 in SW 3.0 mph 12.0 mph 62% 0.00 in SCT
04:49 35.4 °F 24.0 °F 29.77 in WSW 2.0 mph 12.0 mph 63% 0.00 in SCT
05:04 35.3 °F 24.0 °F 29.77 in SW 2.0 mph 12.0 mph 63% 0.00 in BKN
05:19 35.3 °F 24.4 °F 29.78 in WSW 5.0 mph 10.0 mph 64% 0.00 in BKN
05:34 35.5 °F 24.9 °F 29.78 in SW 3.0 mph 10.0 mph 65% 0.00 in BKN
05:49 35.5 °F 25.3 °F 29.78 in SW 2.0 mph 8.0 mph 66% 0.00 in BKN
06:04 35.6 °F 25.4 °F 29.78 in SW 1.0 mph 12.0 mph 66% 0.00 in BKN
06:19 35.6 °F 25.7 °F 29.78 in WSW 2.0 mph 12.0 mph 67% 0.00 in BKN
06:34 35.7 °F 25.8 °F 29.78 in WSW 3.0 mph 12.0 mph 67% 0.00 in BKN
06:49 35.8 °F 26.3 °F 29.79 in WSW 3.0 mph 12.0 mph 68% 0.00 in BKN
07:04 35.9 °F 26.4 °F 29.80 in WSW 3.0 mph 12.0 mph 68% 0.00 in BKN
07:19 36.1 °F 26.6 °F 29.80 in SSW 5.0 mph 13.0 mph 68% 0.00 in BKN
07:34 36.3 °F 26.7 °F 29.80 in SW 2.0 mph 12.0 mph 68% 0.00 in BKN
07:49 36.5 °F 26.9 °F 29.80 in SW 3.0 mph 10.0 mph 68% 0.00 in BKN
08:04 36.8 °F 26.9 °F 29.81 in WSW 3.0 mph 10.0 mph 67% 0.00 in BKN
08:19 37.1 °F 27.2 °F 29.81 in SW 5.0 mph 12.0 mph 67% 0.00 in BKN
08:34 37.6 °F 27.6 °F 29.81 in SSW 3.0 mph 12.0 mph 67% 0.00 in BKN
08:49 37.7 °F 27.7 °F 29.82 in SW 3.0 mph 14.0 mph 67% 0.00 in BKN
09:04 38.1 °F 28.1 °F 29.82 in SW 5.0 mph 10.0 mph 67% 0.00 in BKN
09:19 38.5 °F 28.1 °F 29.82 in WSW 6.0 mph 14.0 mph 66% 0.00 in BKN
09:34 39.1 °F 28.7 °F 29.82 in SW 3.0 mph 12.0 mph 66% 0.00 in BKN
09:49 39.7 °F 28.9 °F 29.82 in SW 3.0 mph 9.0 mph 65% 0.00 in BKN
10:04 39.9 °F 29.1 °F 29.82 in WSW 5.0 mph 12.0 mph 65% 0.00 in BKN
10:19 40.8 °F 29.9 °F 29.81 in SW 2.0 mph 12.0 mph 65% 0.00 in BKN
10:49 41.5 °F 30.2 °F 29.81 in SW 2.0 mph 12.0 mph 64% 0.00 in BKN
11:04 42.3 °F 30.6 °F 29.81 in WSW 3.0 mph 12.0 mph 63% 0.00 in BKN
11:19 42.8 °F 30.6 °F 29.81 in West 1.0 mph 12.0 mph 62% 0.00 in BKN
11:34 43.2 °F 29.8 °F 29.82 in SSW 3.0 mph 12.0 mph 59% 0.00 in BKN
11:49 43.3 °F 30.3 °F 29.82 in SW 5.0 mph 13.0 mph 60% 0.00 in BKN
12:04 44.1 °F 31.1 °F 29.82 in SW 2.0 mph 15.0 mph 60% 0.00 in BKN
12:19 44.4 °F 30.6 °F 29.81 in SW 6.0 mph 15.0 mph 58% 0.00 in BKN
12:34 44.8 °F 30.5 °F 29.81 in WSW 7.0 mph 15.0 mph 57% 0.00 in BKN
12:49 46.1 °F 30.8 °F 29.81 in WSW 6.0 mph 12.0 mph 55% 0.00 in BKN
13:04 45.9 °F 31.1 °F 29.81 in SSW 3.0 mph 14.0 mph 56% 0.00 in BKN
13:19 46.0 °F 31.2 °F 29.81 in West 2.0 mph 12.0 mph 56% 0.00 in BKN
13:34 47.1 °F 31.3 °F 29.81 in WSW 6.0 mph 12.0 mph 54% 0.00 in BKN
13:49 47.6 °F 31.7 °F 29.81 in West 3.0 mph 14.0 mph 54% 0.00 in BKN
14:04 47.6 °F 31.3 °F 29.81 in WSW 2.0 mph 13.0 mph 53% 0.00 in BKN
14:19 47.8 °F 31.0 °F 29.81 in WSW 5.0 mph 12.0 mph 52% 0.00 in BKN
14:34 48.8 °F 31.9 °F 29.80 in WSW 3.0 mph 10.0 mph 52% 0.00 in BKN
14:49 49.1 °F 31.3 °F 29.80 in WSW 8.0 mph 15.0 mph 50% 0.00 in BKN
15:04 49.8 °F 31.9 °F 29.79 in SW 6.0 mph 14.0 mph 50% 0.00 in SCT
15:19 49.0 °F 32.1 °F 29.79 in West 6.0 mph 12.0 mph 52% 0.00 in SCT
15:34 49.5 °F 31.1 °F 29.79 in SW 6.0 mph 12.0 mph 49% 0.00 in SCT
15:49 49.4 °F 31.5 °F 29.78 in WSW 2.0 mph 15.0 mph 50% 0.00 in SCT
16:04 49.7 °F 31.8 °F 29.79 in West 2.0 mph 10.0 mph 50% 0.00 in SCT
16:19 50.3 °F 31.3 °F 29.78 in WSW 5.0 mph 10.0 mph 48% 0.00 in SCT
16:34 49.9 °F 31.5 °F 29.79 in West 3.0 mph 10.0 mph 49% 0.00 in SCT
16:49 50.2 °F 31.2 °F 29.80 in West 5.0 mph 14.0 mph 48% 0.00 in SCT
17:04 50.4 °F 32.0 °F 29.80 in WSW 2.0 mph 12.0 mph 49% 0.00 in SCT
17:19 51.2 °F 31.6 °F 29.80 in WSW 5.0 mph 10.0 mph 47% 0.00 in SCT
17:34 51.3 °F 31.7 °F 29.80 in SW 2.0 mph 7.0 mph 47% 0.00 in SCT
17:49 51.4 °F 32.3 °F 29.80 in WSW 3.0 mph 9.0 mph 48% 0.00 in SCT
18:04 51.5 °F 31.9 °F 29.80 in West 2.0 mph 12.0 mph 47% 0.00 in FEW
18:19 51.4 °F 32.4 °F 29.80 in WSW 2.0 mph 9.0 mph 48% 0.00 in FEW
18:34 51.2 °F 31.1 °F 29.80 in WSW 2.0 mph 5.0 mph 46% 0.00 in FEW
18:49 51.0 °F 31.5 °F 29.80 in SW 1.0 mph 5.0 mph 47% 0.00 in FEW
19:04 50.0 °F 31.6 °F 29.80 in Calm   6.0 mph 49% 0.00 in FEW
19:19 48.8 °F 31.5 °F 29.80 in Calm   4.0 mph 51% 0.00 in FEW
19:34 47.9 °F 31.5 °F 29.80 in Calm   4.0 mph 53% 0.00 in FEW
19:49 47.1 °F 31.8 °F 29.80 in NNE 1.0 mph 4.0 mph 55% 0.00 in FEW
20:04 46.7 °F 31.8 °F 29.80 in Calm   3.0 mph 56% 0.00 in CLR
20:19 46.1 °F 32.1 °F 29.80 in Calm   3.0 mph 58% 0.00 in CLR
20:34 45.5 °F 32.0 °F 29.81 in Calm   2.0 mph 59% 0.00 in CLR
20:49 44.8 °F 31.8 °F 29.81 in Calm   1.0 mph 60% 0.00 in CLR
21:04 44.5 °F 31.9 °F 29.81 in Calm   3.0 mph 61% 0.00 in CLR
21:19 44.3 °F 31.7 °F 29.82 in Calm   3.0 mph 61% 0.00 in CLR
21:34 44.2 °F 31.2 °F 29.82 in Calm   2.0 mph 60% 0.00 in CLR
21:49 44.1 °F 31.5 °F 29.82 in Calm   1.0 mph 61% 0.00 in CLR
22:04 43.7 °F 31.9 °F 29.82 in Calm   1.0 mph 63% 0.00 in CLR
22:19 42.4 °F 31.5 °F 29.82 in Calm     65% 0.00 in CLR
22:34 41.9 °F 31.7 °F 29.81 in Calm     67% 0.00 in CLR
22:49 40.6 °F 31.6 °F 29.81 in Calm     70% 0.00 in CLR
23:04 40.5 °F 31.1 °F 29.81 in Calm     69% 0.00 in CLR
23:19 40.8 °F 31.1 °F 29.80 in Calm     68% 0.00 in CLR
23:34 41.1 °F 31.7 °F 29.80 in Calm     69% 0.00 in CLR
23:49 42.1 °F 31.9 °F 29.79 in Calm     67% 0.00 in CLR
TarryTown NY Weather
Compliments of Weather Underground - 1.5 mb